航空気象通報

ウインドサーファーのための航空気象通報による風予報です。

5/31-6/1の航空気象通報(国内、海外)

2009年05月31日 21時52分04秒 | TAF
羽田空港
TAF RJTT 310847Z 3109/0112 02008KT 9000 FEW008 SCT010 BKN025
TEMPO 3112/3115 3000 SHRA BR BKN007 BKN012 FEW020CB
TEMPO 3115/3121 4000 BR FEW005 BKN008
BECMG 0103/0106 08008KT
日本時間31日18時-1日12時:020度から8ノットの風
12-15時:風が変化
15-21時:080度から8ノットの風

但し、31日21-24時の間:一時、

那覇空港
TAF ROAH 310842Z 3109/0112 35011KT 9999 FEW030
BECMG 3121/3124 07005KT
BECMG 0109/0112 11006KT
日本時間31日18-21時:350度から11ノットの風
21-23時:風が変化
23時-1日18時:070度から5ノットの風
18-21時:風が変化
21時:110度から6ノットの風


マウイのカフルイ空港
PHOG 311134Z 3112/0112 12006KT P6SM FEW060
FM312000 03015KT P6SM FEW030 SCT060
FM010600 06006KT P6SM FEW060
FM011100 13005KT P6SM SKC
ハワイ時間31日02-10時:120度から6ノットの風
10-20時:030度から15ノットの風
20時-1日01時:060度から6ノットの風
01-02時:130度から5ノットの風


サイパン空港
PGSN 311120Z 3112/0112 15009KT P6SM FEW020 BKN200
マリアナ時間31日22時-1日22時:150度から9ノットの風

コメント
この記事をはてなブックマークに追加

5/30-31の航空気象通報(国内、海外)

2009年05月30日 23時52分38秒 | TAF
羽田空港
TAF AMD RJTT 301303Z 3013/3112 08008KT 9000 FEW008 BKN011 BKN020
TEMPO 3013/3015 4000 -DZ BR FEW005 BKN007 BKN009
TEMPO 3015/3018 4000 BR FEW005 BKN007 BKN009
BECMG 3100/3103 18010KT
TEMPO 3106/3112 3000 TSRA BKN007 BKN015 FEW020CB
日本時間30日18時-31日09時:080度から8ノットの風
09-12時:風が変化
12-21時:180度から10ノットの風

但し、31日15-21時の間:一時、

那覇空港
TAF ROAH 300841Z 3009/3112 36012KT 9999 FEW025
日本時間30日18時-31日21時:360度から12ノットの風


マウイのカフルイ空港
PHOG 301120Z 3012/3112 VRB05KT P6SM FEW025
FM302000 02011KT P6SM FEW030 SCT060
FM310600 03006KT P6SM FEW025 SCT050
ハワイ時間30日02-10時:風向不定5ノットの風
10-20時:020度から11ノットの風
20時-30日02時:030度から6ノットの風


サイパン空港
PGSN 301120Z 3012/3112 16007KT P6SM FEW020
FM302300 17009G15KT P6SM VCSH SCT025
FM310900 17007KT P6SM VCSH FEW020
マリアナ時間30日22時-31日09時:160度から7ノットの風
09-19時:170度から9ノット、突風15ノット
19-22時:170度から7ノットの風

コメント
この記事をはてなブックマークに追加

5/29-30の航空気象通報(国内、海外)

2009年05月29日 21時07分28秒 | TAF
羽田空港
TAF RJTT 290835Z 2909/3012 04016KT 9999 FEW008 BKN015 BKN020
TEMPO 2915/2924 4000 RA BR FEW004 BKN007 BKN012
BECMG 3003/3006 07008KT
日本時間29日18時-30日12時:040度から16ノットの風
12-15時:風が変化
15-21時:070度から8ノットの風

但し、30日00-09時の間:一時、

那覇空港
TAF ROAH 290841Z 2909/3012 35014KT 9999 FEW020
日本時間29日18時-30日21時:350度から14ノットの風


マウイのカフルイ空港
PHOG 291136Z 2912/3012 VRB03KT P6SM SCT060
FM292100 34008KT P6SM SCT030 BKN060
FM300600 05005KT P6SM FEW030 SCT060
ハワイ時間29日02-11時:風向不定3ノットの風

11-20時:340度から8ノットの風

20時-30日02時:050度から5ノットの風


サイパン空港
PGSN 291120Z 2912/3012 15007KT P6SM VCSH FEW020 SCT040
FM292300 15011G17KT P6SM VCSH SCT025 SCT050
FM300900 15007KT P6SM VCSH FEW020 SCT040
マリアナ時間29日22時-30日09時:150度から7ノットの風
09-19時:150度から11ノット、突風17ノット
19-22時:150度から7ノットの風

コメント
この記事をはてなブックマークに追加

5/27-28の航空気象通報(国内、海外)

2009年05月27日 23時35分26秒 | TAF
羽田空港
TAF RJTT 270842Z 2709/2812 12014KT 9999 FEW020 SCT030 BKN060
BECMG 2714/2716 04010KT
BECMG 2803/2806 04020KT
TEMPO 2806/2812 3000 SHRA FEW006 BKN009
日本時間27日18-23時:120度から14ノットの風
23時-28日01時:風が変化
01-12時:040度から10ノットの風
12-15時:風が変化
15-21時:040度から20ノットの風


那覇空港
TAF ROAH 270840Z 2709/2812 36016KT 9999 FEW025
TEMPO 2800/2809 34025G35KT
日本時間27日18時-28日21時:360度から16ノットの風
但し、09-18時の間:一時、340度から25ノット、突風35ノット


マウイのカフルイ空港
PHOG 271135Z 2712/2812 15005KT P6SM SCT050
FM271900 35008KT P6SM SCT050
FM280600 17005KT P6SM SCT050
ハワイ時間27日02-09時:150度から5ノットの風
09-20時:350度から8ノットの風
20時-28日02時:170度から5ノットの風


サイパン空港
PGSN 271120Z 2712/2812 10004KT P6SM VCSH FEW025 SCT050
FM272300 11008G14KT P6SM VCSH SCT025 SCT050
マリアナ時間27日21時-28日09時:100度から4ノットの風
09-21時:110度から8ノット、突風14ノット
コメント
この記事をはてなブックマークに追加

5/26-27の航空気象通報(国内、海外)

2009年05月26日 23時46分53秒 | TAF
羽田空港
TAF RJTT 260837Z 2609/2712 18012KT 9999 FEW030
BECMG 2616/2618 12005KT
BECMG 2700/2703 18010KT
日本時間26日18時-27日01時:180度から12ノットの風
01-03時:風が変化
03-09時:120度から5ノットの風
09-12時:風が変化
12-21時:180度から10ノットの風


那覇空港
TAF AMD ROAH 261346Z 2613/2712 11008KT 8000 -SHRA FEW015 SCT030
TEMPO 2613/2621 2000 +SHRA FEW006 SCT008 BKN015 SCT015CB
BECMG 2616/2618 05012KT
TEMPO 2621/2624 02022G32KT 4000 SHRA FEW008 SCT010 SCT015CB BKN020
TEMPO 2700/2712 02022G32KT
日本時間26日18時-27日01時:110度から8ノットの風
01-03時:風が変化
03-21時:050度から12ノットの風
但し、06-21時の間:一時、020度から22ノット、突風32ノット


マウイのカフルイ空港
PHOG 261131Z 2612/2712 VRB05KT P6SM SCT050
FM262100 03010KT P6SM SCT050
FM270600 19008KT P6SM SCT050
ハワイ時間26日02-11時:風向不定5ノットの風
11-20時:030度から10ノットの風
20時-27日02時:190度から8ノットの風


サイパン空港
PGSN 261138Z 2612/2712 09010KT P6SM FEW020
マリアナ時間26日21時-27日21時:090度から10ノットの風

コメント
この記事をはてなブックマークに追加